createdAt,value
2017-11-06T00:01:13.416Z,24.67
2017-11-06T00:03:41.163Z,21.80
2017-11-06T00:06:08.682Z,26.62
2017-11-06T00:08:36.212Z,25.85
2017-11-06T00:11:03.776Z,25.33
2017-11-06T00:13:31.323Z,23.83
2017-11-06T00:15:58.853Z,19.15
2017-11-06T00:18:26.599Z,27.70
2017-11-06T00:20:54.121Z,21.90
2017-11-06T00:23:21.643Z,26.10
2017-11-06T00:25:49.382Z,27.27
2017-11-06T00:28:16.907Z,22.42
2017-11-06T00:30:44.427Z,19.60
2017-11-06T00:33:12.180Z,22.60
2017-11-06T00:35:39.740Z,30.05
2017-11-06T00:38:07.297Z,22.27
2017-11-06T00:40:35.060Z,23.35
2017-11-06T00:43:02.580Z,28.10
2017-11-06T00:45:30.115Z,22.95
2017-11-06T00:47:57.822Z,22.98
2017-11-06T00:50:25.355Z,22.95
2017-11-06T00:52:52.871Z,28.00
2017-11-06T00:55:20.599Z,26.10
2017-11-06T00:57:48.126Z,23.75
2017-11-06T01:00:15.664Z,20.05
2017-11-06T01:02:43.399Z,26.87
2017-11-06T01:05:10.915Z,28.30
2017-11-06T01:07:38.658Z,26.87
2017-11-06T01:10:06.367Z,29.40
2017-11-06T01:12:33.893Z,30.42
2017-11-06T01:15:01.416Z,29.58
2017-11-06T01:17:29.463Z,28.00
2017-11-06T01:19:57.016Z,27.50
2017-11-06T01:22:24.535Z,28.83
2017-11-06T01:24:52.252Z,25.98
2017-11-06T01:27:19.812Z,27.10
2017-11-06T01:29:47.375Z,25.02
2017-11-06T01:32:15.138Z,27.92
2017-11-06T01:34:42.692Z,25.80
2017-11-06T01:37:10.226Z,28.52
2017-11-06T01:39:38.117Z,27.27
2017-11-06T01:42:05.676Z,29.77
2017-11-06T01:44:33.237Z,36.85
2017-11-06T01:47:00.987Z,28.55
2017-11-06T01:49:28.512Z,30.83
2017-11-06T01:51:56.040Z,28.87
2017-11-06T01:54:23.866Z,30.05
2017-11-06T01:56:59.326Z,29.20
2017-11-06T01:59:27.193Z,28.95
2017-11-06T02:01:54.716Z,31.77
2017-11-06T02:04:22.235Z,35.05
2017-11-06T02:06:50.059Z,29.45
2017-11-06T02:09:17.583Z,32.60
2017-11-06T02:11:45.103Z,25.37
2017-11-06T02:14:12.957Z,26.92
2017-11-06T02:16:40.516Z,24.48
2017-11-06T02:19:08.075Z,35.83
2017-11-06T02:21:35.926Z,27.73
2017-11-06T02:24:03.453Z,26.35
2017-11-06T02:26:30.983Z,28.75
2017-11-06T02:28:58.983Z,25.27
2017-11-06T02:31:26.507Z,28.25
2017-11-06T02:33:54.045Z,25.40
2017-11-06T02:36:21.616Z,32.55
2017-11-06T02:38:49.163Z,26.55
2017-11-06T02:41:16.723Z,27.52
2017-11-06T02:43:44.491Z,24.17
2017-11-06T02:46:12.044Z,33.22
2017-11-06T02:48:39.604Z,24.87
2017-11-06T02:51:07.253Z,21.87
2017-11-06T02:53:34.777Z,28.58
2017-11-06T02:56:02.359Z,24.95
2017-11-06T02:58:29.908Z,27.05
2017-11-06T03:00:57.434Z,32.85
2017-11-06T03:03:24.942Z,23.73
2017-11-06T03:05:52.707Z,25.17
2017-11-06T03:08:20.224Z,23.98
2017-11-06T03:10:47.752Z,26.35
2017-11-06T03:13:15.606Z,33.40
2017-11-06T03:15:43.167Z,23.42
2017-11-06T03:18:10.725Z,25.00
2017-11-06T03:20:38.693Z,26.20
2017-11-06T03:23:06.261Z,26.55
2017-11-06T03:25:33.811Z,25.10
2017-11-06T03:28:01.471Z,31.62
2017-11-06T03:30:29.032Z,25.37
2017-11-06T03:32:56.559Z,26.40
2017-11-06T03:35:24.149Z,51.17
2017-11-06T03:37:51.689Z,31.65
2017-11-06T03:40:19.212Z,30.27
2017-11-06T03:42:46.916Z,26.77
2017-11-06T03:45:14.436Z,28.02
2017-11-06T03:47:41.959Z,27.75
2017-11-06T03:50:09.616Z,32.15
2017-11-06T03:52:37.144Z,25.10
2017-11-06T03:55:04.675Z,35.33
2017-11-06T03:57:32.385Z,22.48
2017-11-06T03:59:59.958Z,24.50
2017-11-06T04:02:27.518Z,30.20
2017-11-06T04:04:55.272Z,23.85
2017-11-06T04:07:22.796Z,22.73
2017-11-06T04:09:50.317Z,21.98
2017-11-06T04:12:18.041Z,28.10
2017-11-06T04:14:45.567Z,21.85
2017-11-06T04:17:13.822Z,23.55
2017-11-06T04:19:41.727Z,21.17
2017-11-06T04:22:09.246Z,30.90
2017-11-06T04:24:36.765Z,21.92
2017-11-06T04:27:04.347Z,24.50
2017-11-06T04:29:31.882Z,22.42
2017-11-06T04:31:59.441Z,32.08
2017-11-06T04:34:27.251Z,23.48
2017-11-06T04:36:54.872Z,21.77
2017-11-06T04:39:22.400Z,26.67
2017-11-06T04:41:50.103Z,23.38
2017-11-06T04:44:17.650Z,20.27
2017-11-06T04:46:45.615Z,37.13
2017-11-06T04:49:13.462Z,23.98
2017-11-06T04:51:40.984Z,31.20
2017-11-06T04:54:08.513Z,24.60
2017-11-06T04:56:36.465Z,30.85
2017-11-06T04:59:03.989Z,25.37
2017-11-06T05:01:31.994Z,24.92
2017-11-06T05:03:59.779Z,25.73
2017-11-06T05:06:27.317Z,23.17
2017-11-06T05:08:54.876Z,23.65
2017-11-06T05:11:22.534Z,23.98
2017-11-06T05:13:50.089Z,28.27
2017-11-06T05:16:18.600Z,28.02
2017-11-06T05:18:46.321Z,31.05
2017-11-06T05:21:13.843Z,37.85
2017-11-06T05:23:41.384Z,26.92
2017-11-06T05:26:09.324Z,34.05
2017-11-06T05:28:36.841Z,31.25
2017-11-06T05:31:04.388Z,28.05
2017-11-06T05:33:32.411Z,32.20
2017-11-06T05:36:00.381Z,31.15
2017-11-06T05:38:27.941Z,35.38
2017-11-06T05:40:55.594Z,40.17
2017-11-06T05:43:23.114Z,26.17
2017-11-06T05:45:50.635Z,31.37
2017-11-06T05:48:18.381Z,34.47
2017-11-06T05:50:45.943Z,27.05
2017-11-06T05:53:13.500Z,36.95
2017-11-06T05:55:41.264Z,30.70
2017-11-06T05:58:11.895Z,29.90
2017-11-06T06:00:39.557Z,37.30
2017-11-06T06:03:07.322Z,31.48
2017-11-06T06:05:34.881Z,34.75
2017-11-06T06:08:02.478Z,33.53
2017-11-06T06:10:30.043Z,36.20
2017-11-06T06:12:57.564Z,36.38
2017-11-06T06:15:25.088Z,27.92
2017-11-06T06:17:52.673Z,33.22
2017-11-06T06:20:20.234Z,37.63
2017-11-06T06:22:47.763Z,36.78
2017-11-06T06:25:15.453Z,36.90
2017-11-06T06:27:43.016Z,41.15
2017-11-06T06:30:10.536Z,34.95
2017-11-06T06:32:38.444Z,40.28
2017-11-06T06:35:05.996Z,27.30
2017-11-06T06:37:33.515Z,43.67
2017-11-06T06:40:01.223Z,36.60
2017-11-06T06:42:28.776Z,37.83
2017-11-06T06:44:56.299Z,39.83
2017-11-06T06:47:23.857Z,41.15
2017-11-06T06:49:51.391Z,32.58
2017-11-06T06:52:18.915Z,32.58
2017-11-06T06:54:46.488Z,47.72
2017-11-06T06:57:14.030Z,33.67
2017-11-06T06:59:41.595Z,35.10
2017-11-06T07:02:09.455Z,35.35
2017-11-06T07:04:37.015Z,37.15
2017-11-06T07:07:04.573Z,35.90
2017-11-06T07:09:33.361Z,41.47
2017-11-06T07:12:01.537Z,29.30
2017-11-06T07:14:29.093Z,35.80
2017-11-06T07:16:57.005Z,37.83
2017-11-06T07:19:24.532Z,39.50
2017-11-06T07:21:52.079Z,40.60
2017-11-06T07:24:19.840Z,35.13
2017-11-06T07:26:47.402Z,34.72
2017-11-06T07:29:14.962Z,37.00
2017-11-06T07:31:42.736Z,31.92
2017-11-06T07:34:11.614Z,31.95
2017-11-06T07:36:39.174Z,32.55
2017-11-06T07:39:07.040Z,36.83
2017-11-06T07:41:34.559Z,46.78
2017-11-06T07:44:02.079Z,35.83
2017-11-06T07:46:29.791Z,32.22
2017-11-06T07:48:57.665Z,34.75
2017-11-06T07:51:25.188Z,30.45
2017-11-06T07:53:53.099Z,38.90
2017-11-06T07:56:20.624Z,35.53
2017-11-06T07:58:48.151Z,29.58
2017-11-06T08:01:15.891Z,38.55
2017-11-06T08:03:43.407Z,37.55
2017-11-06T08:06:10.931Z,35.55
2017-11-06T08:08:38.862Z,40.08
2017-11-06T08:11:06.375Z,25.15
2017-11-06T08:13:33.896Z,42.33
2017-11-06T08:16:01.636Z,31.20
2017-11-06T08:18:29.214Z,32.45
2017-11-06T08:20:56.737Z,29.08
2017-11-06T08:23:25.033Z,36.60
2017-11-06T08:25:52.561Z,33.47
2017-11-06T08:28:20.087Z,31.35
2017-11-06T08:30:48.341Z,33.00
2017-11-06T08:33:15.864Z,32.88
2017-11-06T08:35:43.395Z,39.35
2017-11-06T08:38:11.312Z,32.20
2017-11-06T08:40:38.835Z,44.75
2017-11-06T08:43:06.355Z,36.40
2017-11-06T08:45:34.090Z,32.55
2017-11-06T08:48:01.623Z,26.17
2017-11-06T08:50:30.555Z,24.02
2017-11-06T08:52:58.895Z,25.10
2017-11-06T08:55:26.475Z,24.70
2017-11-06T08:57:54.296Z,38.75
2017-11-06T09:00:21.871Z,40.70
2017-11-06T09:02:49.404Z,30.00
2017-11-06T09:05:16.971Z,26.80
2017-11-06T09:07:44.684Z,36.58
2017-11-06T09:10:12.209Z,23.40
2017-11-06T09:12:39.736Z,26.87
2017-11-06T09:15:07.477Z,32.08
2017-11-06T09:17:35.039Z,28.80
2017-11-06T09:20:02.596Z,32.45
2017-11-06T09:22:30.366Z,24.20
2017-11-06T09:24:57.908Z,35.75
2017-11-06T09:27:25.427Z,23.23
2017-11-06T09:29:53.038Z,26.70
2017-11-06T09:32:20.596Z,30.08
2017-11-06T09:34:48.155Z,21.73
2017-11-06T09:37:15.902Z,23.75
2017-11-06T09:39:43.430Z,29.65
2017-11-06T09:42:10.958Z,20.95
2017-11-06T09:44:38.680Z,24.95
2017-11-06T09:47:06.200Z,27.13
2017-11-06T09:49:33.727Z,35.80
2017-11-06T09:52:02.034Z,32.47
2017-11-06T09:54:29.595Z,24.27
2017-11-06T09:56:57.128Z,23.75
2017-11-06T09:59:24.791Z,28.42
2017-11-06T10:01:52.331Z,36.50
2017-11-06T10:04:19.852Z,23.98
2017-11-06T10:06:47.551Z,25.65
2017-11-06T10:09:15.111Z,29.42
2017-11-06T10:11:42.636Z,28.85
2017-11-06T10:14:10.348Z,30.17
2017-11-06T10:16:37.871Z,26.42
2017-11-06T10:19:05.397Z,38.28
2017-11-06T10:21:33.110Z,29.77
2017-11-06T10:24:00.672Z,30.45
2017-11-06T10:26:28.229Z,22.98
2017-11-06T10:28:55.891Z,22.30
2017-11-06T10:31:23.428Z,26.10
2017-11-06T10:33:50.947Z,31.33
2017-11-06T10:36:18.524Z,47.42
2017-11-06T10:38:46.051Z,26.50
2017-11-06T10:41:13.584Z,33.20
2017-11-06T10:43:41.330Z,28.05
2017-11-06T10:46:09.216Z,27.60
2017-11-06T10:48:36.754Z,23.85
2017-11-06T10:51:04.643Z,34.80
2017-11-06T10:53:32.199Z,29.85
2017-11-06T10:55:59.746Z,25.48
2017-11-06T10:58:27.506Z,24.70
2017-11-06T11:00:55.031Z,29.40
2017-11-06T11:03:22.575Z,28.48
2017-11-06T11:05:50.299Z,23.48
2017-11-06T11:08:17.962Z,25.67
2017-11-06T11:10:45.522Z,27.13
2017-11-06T11:13:13.285Z,22.17
2017-11-06T11:15:40.946Z,21.25
2017-11-06T11:18:08.506Z,23.42
2017-11-06T11:20:36.273Z,37.20
2017-11-06T11:23:03.828Z,21.92
2017-11-06T11:25:31.356Z,20.98
2017-11-06T11:27:59.051Z,28.10
2017-11-06T11:30:26.579Z,29.20
2017-11-06T11:32:54.099Z,29.17
2017-11-06T11:35:21.819Z,19.60
2017-11-06T11:37:49.356Z,27.23
2017-11-06T11:40:17.056Z,33.75
2017-11-06T11:42:44.825Z,31.10
2017-11-06T11:45:12.375Z,32.17
2017-11-06T11:47:39.901Z,30.62
2017-11-06T11:50:07.783Z,27.65
2017-11-06T11:52:35.317Z,24.90
2017-11-06T11:55:02.854Z,31.60
2017-11-06T11:57:31.164Z,26.02
2017-11-06T11:59:59.884Z,24.08
2017-11-06T12:02:27.448Z,22.48
2017-11-06T12:04:55.816Z,27.17
2017-11-06T12:07:23.348Z,28.20
2017-11-06T12:09:50.880Z,21.77
2017-11-06T12:12:18.803Z,25.35
2017-11-06T12:14:46.362Z,24.05
2017-11-06T12:17:13.919Z,21.50
2017-11-06T12:19:42.094Z,21.83
2017-11-06T12:22:09.620Z,23.50
2017-11-06T12:24:37.148Z,18.15
2017-11-06T12:27:04.871Z,24.40
2017-11-06T12:29:32.396Z,24.58
2017-11-06T12:31:59.925Z,21.10
2017-11-06T12:34:27.753Z,18.77
2017-11-06T12:36:55.313Z,21.10
2017-11-06T12:39:22.873Z,16.92
2017-11-06T12:41:50.619Z,20.65
2017-11-06T12:44:18.140Z,24.98
2017-11-06T12:46:45.803Z,18.70
2017-11-06T12:49:13.708Z,16.05
2017-11-06T12:51:41.231Z,15.55
2017-11-06T12:54:08.759Z,20.70
2017-11-06T12:56:37.052Z,24.65
2017-11-06T12:59:07.134Z,27.83
2017-11-06T13:01:34.949Z,23.27
2017-11-06T13:04:02.560Z,21.12
2017-11-06T13:06:30.197Z,21.17
2017-11-06T13:08:58.682Z,18.30
2017-11-06T13:11:27.080Z,21.00
2017-11-06T13:13:56.481Z,23.77
2017-11-06T13:16:24.177Z,23.20
2017-11-06T13:18:52.034Z,20.42
2017-11-06T13:21:22.130Z,21.40
2017-11-06T13:23:49.801Z,17.90
2017-11-06T13:26:17.536Z,22.42
2017-11-06T13:28:45.059Z,25.05
2017-11-06T13:31:12.658Z,22.87
2017-11-06T13:33:40.362Z,17.83
2017-11-06T13:36:07.996Z,17.98
2017-11-06T13:38:36.476Z,22.27
2017-11-06T13:41:04.630Z,21.30
2017-11-06T13:43:32.224Z,23.80
2017-11-06T13:46:00.178Z,24.15
2017-11-06T13:48:29.989Z,19.17
2017-11-06T13:50:57.671Z,18.92
2017-11-06T13:53:27.568Z,17.92
2017-11-06T13:55:55.536Z,16.02
2017-11-06T13:58:23.265Z,17.52
2017-11-06T14:00:51.268Z,30.62
2017-11-06T14:03:20.772Z,21.52
2017-11-06T14:05:49.897Z,26.83
2017-11-06T14:08:17.471Z,18.05
2017-11-06T14:10:45.510Z,22.95
2017-11-06T14:13:13.364Z,23.92
2017-11-06T14:15:41.268Z,20.42
2017-11-06T14:18:10.067Z,24.55
2017-11-06T14:20:37.965Z,18.52
2017-11-06T14:23:05.548Z,25.12
2017-11-06T14:25:33.751Z,17.67
2017-11-06T14:28:01.340Z,16.77
2017-11-06T14:30:28.942Z,22.87
2017-11-06T14:32:57.137Z,18.23
2017-11-06T14:35:24.779Z,20.42
2017-11-06T14:37:52.438Z,16.27
2017-11-06T14:40:20.409Z,19.05
2017-11-06T14:42:47.971Z,29.50
2017-11-06T14:45:15.626Z,18.30
2017-11-06T14:47:44.746Z,21.62
2017-11-06T14:50:12.898Z,18.67
2017-11-06T14:52:40.865Z,24.55
2017-11-06T14:55:10.504Z,19.37
2017-11-06T14:57:38.338Z,22.45
2017-11-06T15:00:06.614Z,15.50
2017-11-06T15:02:34.409Z,16.55
2017-11-06T15:05:01.938Z,16.08
2017-11-06T15:07:30.519Z,17.25
2017-11-06T15:09:59.308Z,17.35
2017-11-06T15:12:27.073Z,13.30
2017-11-06T15:14:55.659Z,13.15
2017-11-06T15:17:24.243Z,31.60
2017-11-06T15:19:54.359Z,17.83
2017-11-06T15:22:23.772Z,11.73
2017-11-06T15:24:51.377Z,10.25
2017-11-06T15:27:19.631Z,13.52
2017-11-06T15:29:47.388Z,14.68
2017-11-06T15:32:15.096Z,15.88
2017-11-06T15:34:43.909Z,13.35
2017-11-06T15:37:12.904Z,13.48
2017-11-06T15:39:42.066Z,20.15
2017-11-06T15:42:09.659Z,11.93
2017-11-06T15:44:38.567Z,19.73
2017-11-06T15:47:06.417Z,20.17
2017-11-06T15:49:34.406Z,17.62
2017-11-06T15:52:02.603Z,21.65
2017-11-06T15:54:30.733Z,11.95
2017-11-06T15:57:01.158Z,15.00
2017-11-06T15:59:28.923Z,19.27
2017-11-06T16:01:56.777Z,16.52
2017-11-06T16:04:24.860Z,16.65
2017-11-06T16:06:52.740Z,12.65
2017-11-06T16:09:20.312Z,19.50
2017-11-06T16:11:47.859Z,16.45
2017-11-06T16:14:16.634Z,19.17
2017-11-06T16:16:44.397Z,19.48
2017-11-06T16:19:13.085Z,16.37
2017-11-06T16:21:41.260Z,15.27
2017-11-06T16:24:09.451Z,10.98
2017-11-06T16:26:38.525Z,14.80
2017-11-06T16:29:07.440Z,14.48
2017-11-06T16:31:36.173Z,14.20
2017-11-06T16:34:06.467Z,24.92
2017-11-06T16:36:34.291Z,25.17
2017-11-06T16:39:01.881Z,13.32
2017-11-06T16:41:29.454Z,15.00
2017-11-06T16:43:56.979Z,28.90
2017-11-06T16:46:24.496Z,33.38
2017-11-06T16:48:52.382Z,16.05
2017-11-06T16:51:20.051Z,19.90
2017-11-06T16:53:47.618Z,17.00
2017-11-06T16:56:15.366Z,21.08
2017-11-06T16:58:42.883Z,21.00
2017-11-06T17:01:10.531Z,21.25
2017-11-06T17:03:39.182Z,12.93
2017-11-06T17:06:07.149Z,20.75
2017-11-06T17:08:35.036Z,20.20
2017-11-06T17:11:03.806Z,22.20
2017-11-06T17:13:31.454Z,15.32
2017-11-06T17:15:59.203Z,18.62
2017-11-06T17:18:27.817Z,16.10
2017-11-06T17:20:55.574Z,20.80
2017-11-06T17:23:23.551Z,19.30
2017-11-06T17:25:51.411Z,17.50
2017-11-06T17:28:19.116Z,15.45
2017-11-06T17:30:47.167Z,15.60
2017-11-06T17:33:15.339Z,16.52
2017-11-06T17:35:43.287Z,23.73
2017-11-06T17:38:11.988Z,11.63
2017-11-06T17:40:39.735Z,17.87
2017-11-06T17:43:07.705Z,16.30
2017-11-06T17:45:35.560Z,14.63
2017-11-06T17:48:03.643Z,10.75
2017-11-06T18:03:31.895Z,10.30
2017-11-06T18:11:30.267Z,11.88
2017-11-06T18:16:38.530Z,15.13
2017-11-06T18:24:19.859Z,11.05
2017-11-06T18:29:30.439Z,9.55
2017-11-06T18:34:44.431Z,11.10
2017-11-06T18:39:52.657Z,15.55
2017-11-06T18:44:58.197Z,11.90
2017-11-06T18:53:20.870Z,7.07
2017-11-06T18:55:53.340Z,12.05
2017-11-06T18:58:24.832Z,12.48
2017-11-06T19:06:09.595Z,10.48
2017-11-06T19:08:43.938Z,15.25
2017-11-06T19:24:31.436Z,7.68
2017-11-06T19:26:59.958Z,11.90
2017-11-06T19:29:27.787Z,10.13
2017-11-06T19:31:55.943Z,13.73
2017-11-06T19:34:23.911Z,15.07
2017-11-06T19:36:51.982Z,12.05
2017-11-06T19:39:19.866Z,13.62
2017-11-06T19:41:47.939Z,11.20
2017-11-06T19:44:15.910Z,12.30
2017-11-06T19:46:43.773Z,9.35
2017-11-06T19:49:11.738Z,11.20
2017-11-06T19:51:39.896Z,8.23
2017-11-06T19:54:07.779Z,8.77
2017-11-06T19:56:36.245Z,11.32
2017-11-06T19:59:04.028Z,17.98
2017-11-06T20:01:31.874Z,10.88
2017-11-06T20:04:00.015Z,12.93
2017-11-06T20:06:28.366Z,12.80
2017-11-06T20:08:56.400Z,13.27
2017-11-06T20:11:24.479Z,17.10
2017-11-06T20:13:52.349Z,13.32
2017-11-06T20:16:20.710Z,11.35
2017-11-06T20:18:49.610Z,15.52
2017-11-06T20:21:18.358Z,20.92
2017-11-06T20:23:46.254Z,15.90
2017-11-06T20:26:15.481Z,16.35
2017-11-06T20:28:44.445Z,18.75
2017-11-06T20:31:12.416Z,10.85
2017-11-06T20:33:42.225Z,11.93
2017-11-06T20:36:10.706Z,12.98
2017-11-06T20:38:39.503Z,13.48
2017-11-06T20:41:07.667Z,24.98
2017-11-06T20:43:35.446Z,15.45
2017-11-06T20:46:03.311Z,11.50
2017-11-06T20:48:31.268Z,12.93
2017-11-06T20:50:59.236Z,16.60
2017-11-06T20:53:27.511Z,18.73
2017-11-06T20:55:55.498Z,16.60
2017-11-06T20:58:23.430Z,16.25
2017-11-06T21:00:53.266Z,10.65
2017-11-06T21:03:21.372Z,24.02
2017-11-06T21:05:49.302Z,27.23
2017-11-06T21:08:17.079Z,23.58
2017-11-06T21:10:45.441Z,12.10
2017-11-06T21:13:13.311Z,13.90
2017-11-06T21:15:41.789Z,14.50
2017-11-06T21:18:09.963Z,13.20
2017-11-06T21:20:37.830Z,17.77
2017-11-06T21:23:05.698Z,15.82
2017-11-06T21:25:33.562Z,14.30
2017-11-06T21:28:01.342Z,14.70
2017-11-06T21:30:35.033Z,18.87
2017-11-06T21:33:02.795Z,15.90
2017-11-06T21:35:30.573Z,14.18
2017-11-06T21:37:58.534Z,17.87
2017-11-06T21:40:26.287Z,20.10
2017-11-06T21:42:53.955Z,15.10
2017-11-06T21:45:21.676Z,18.75
2017-11-06T21:47:49.590Z,15.68
2017-11-06T21:50:17.675Z,16.87
2017-11-06T21:52:45.652Z,17.80
2017-11-06T21:55:13.203Z,14.52
2017-11-06T21:57:40.728Z,16.73
2017-11-06T22:00:08.811Z,16.10
2017-11-06T22:02:36.413Z,14.90
2017-11-06T22:05:04.136Z,15.43
2017-11-06T22:07:32.000Z,16.40
2017-11-06T22:09:59.615Z,15.13
2017-11-06T22:12:27.208Z,15.18
2017-11-06T22:14:55.089Z,26.27
2017-11-06T22:17:22.752Z,12.50
2017-11-06T22:19:50.458Z,14.48
2017-11-06T22:22:18.482Z,13.07
2017-11-06T22:24:46.248Z,15.05
2017-11-06T22:27:13.795Z,11.88
2017-11-06T22:29:41.499Z,17.20
2017-11-06T22:32:09.044Z,13.95
2017-11-06T22:34:36.592Z,13.07
2017-11-06T22:37:04.450Z,14.35
2017-11-06T22:39:32.009Z,16.65
2017-11-06T22:41:59.570Z,15.98
2017-11-06T22:44:27.316Z,19.48
2017-11-06T22:46:54.892Z,19.08
2017-11-06T22:49:22.451Z,12.73
2017-11-06T22:51:50.137Z,24.90
2017-11-06T22:54:17.697Z,22.27
2017-11-06T22:56:45.225Z,16.40
2017-11-06T22:59:13.087Z,20.83
2017-11-06T23:01:40.659Z,16.33
2017-11-06T23:04:08.217Z,18.95
2017-11-06T23:06:35.775Z,16.37
2017-11-06T23:09:03.335Z,19.20
2017-11-06T23:11:30.892Z,13.73
2017-11-06T23:13:58.609Z,19.58
2017-11-06T23:16:26.127Z,16.83
2017-11-06T23:18:53.645Z,18.87
2017-11-06T23:21:21.424Z,11.40
2017-11-06T23:23:48.948Z,12.43
2017-11-06T23:26:16.467Z,15.25
2017-11-06T23:28:44.307Z,13.88
2017-11-06T23:31:11.827Z,14.15
2017-11-06T23:33:39.339Z,13.48
2017-11-06T23:36:06.896Z,14.82
2017-11-06T23:38:34.453Z,19.08
2017-11-06T23:41:02.011Z,16.67
2017-11-06T23:43:30.083Z,15.55
2017-11-06T23:45:57.625Z,12.80
2017-11-06T23:48:25.142Z,20.75
2017-11-06T23:50:52.830Z,21.12
2017-11-06T23:53:20.349Z,19.37
2017-11-06T23:55:47.883Z,16.85
2017-11-06T23:58:15.439Z,14.57
